Louisville, KY

2:14 AM EDT on May 24, 2015 (GMT -0400)
Shively | | Change Station
CLOSE
Current Station
Personal Weather Station
Location: Louisville, KY
Elevation: 466 ft
Nearby Weather Stations

Elev 466 ft 38.19 °N, 85.80 °W | Updated 2 seconds ago

Mostly Cloudy
Mostly Cloudy
63.9 °F
Feels Like 63.9 °F
N
0.0
Wind Variable Wind from SW
Gusts 0.0 mph

Today
High -- | Low -- °F
--% Chance of Precip.
Yesterday
High -- | Low -- °F
Precip. -- in
6:25 AM 8:54 PM
Waxing Crescent, 36% visible
Pressure 30.22 in
Visibility 10.0 miles
Clouds Mostly Cloudy 25000 ft
Dew Point 35 °F
Humidity 34%
Rainfall in
Snow Depth Not available.
UV 0 out of 12
Pollen 8.40 out of 12
Air Quality Not available.
Flu Activity Sporadic
METAR KSDF 240556Z 13003KT 10SM BKN250 19/11 A3023 RMK AO2 SLP234 T01890106 10256 20189 58005

More Conditions Fewer Conditions

Pressure 30.22 in
Visibility 10.0 miles
Clouds Mostly Cloudy 25000 ft
Dew Point 35 °F
Humidity 34%
Rainfall in
Snow Depth Not available.
UV 0 out of 12
Pollen 8.40 out of 12
Air Quality Not available.
Flu Activity Sporadic
METAR KSDF 240556Z 13003KT 10SM BKN250 19/11 A3023 RMK AO2 SLP234 T01890106 10256 20189 58005

More Conditions Fewer Conditions

10-Day Weather Forecast

Almanac

Astronomy

May. 24, 2015 Rise Set
Actual Time
Civil Twilight
Nautical Twilight
Astronomical Twilight
Moon
Length of Visible Light
Length of Day
Tomorrow will be .
, % of the Moon is Illuminated

Today's Extremes

State Highs State Lows

Community

WunderPhotos

Upload Photos

1,823,694 photos uploaded!

WunderBlogs® & News

Nearby

Air Quality

  Air Quality AQ Index Pollutant
Not available.

Snow Depth

Station Depth Elevation

Earthquake Activity

City Distance Mag. Time & Date
Minimum magnitude displayed is 2.5.

Coastal Water Temperatures

Place Temperature

Stations

Nearby Weather Stations

Station Location Temp. Windchill Dew Point Humidity Wind Precip. Elev Updated Type